CheckWX is a tool to help pilots better visualize weather data.  It is not intended as a substitute for an official pre-flight weather briefing.

18:11:23 UTC

AGGM TAF
Munda Airport
Solomon Islands
TAF AGGM 241720Z 2418/2518 09008KT 9999 -SHDZ FEW015 SCT029 BKN100 PROB30 INTER 2418/2500 5000 TSSH SCT014 FEW015CB BKN027 Q 1008 1010 1010 1008

Apr-24@
18:00 UTC

Apr-24 @ 18:00 UTC

Apr-25@
18:00 UTC

Apr-25 @ 18:00 UTC

TAF AGGM 241720Z 2418/2518 09008KT 9999 -SHDZ FEW015 SCT029 BKN100
Wind
  • 090° at 8 KTS
Conditions
Light Drizzle
Cloud Levels
  • Few at 1,500' AGL
  • Scattered at 2,900' AGL
  • Broken at 10,000' AGL

Apr-24@
18:00 UTC

Apr-24 @ 18:00 UTC

Apr-25@
00:00 UTC

Apr-25 @ 00:00 UTC

PROB30 INTER 2418/2500 5000 TSSH SCT014 FEW015CB BKN027 Q 1008 1010 1010 1008

Temporary - 30% Likelihood

Temporary - 30% Likelihood during this time.

Conditions
Thunderstorm
Cloud Levels
  • Scattered at 1,400' AGL
  • Few at 1,500' AGL
  • Broken at 2,700' AGL